sensor_id;sensor_type;location;lat;lon;timestamp;pressure;altitude;pressure_sealevel;temperature;humidity
76762;BME280;65705;51.032;13.790;2023-03-04T00:00:07;100854.94;;;2.64;72.24
76762;BME280;65705;51.032;13.790;2023-03-04T00:02:35;100854.38;;;2.59;72.08
76762;BME280;65705;51.032;13.790;2023-03-04T00:05:01;100838.19;;;2.56;72.33
76762;BME280;65705;51.032;13.790;2023-03-04T00:07:28;100849.53;;;2.53;72.47
76762;BME280;65705;51.032;13.790;2023-03-04T00:09:54;100850.47;;;2.52;72.27
76762;BME280;65705;51.032;13.790;2023-03-04T00:12:19;100845.47;;;2.49;72.45
76762;BME280;65705;51.032;13.790;2023-03-04T00:14:45;100841.03;;;2.51;72.43
76762;BME280;65705;51.032;13.790;2023-03-04T00:17:11;100833.19;;;2.53;72.42
76762;BME280;65705;51.032;13.790;2023-03-04T00:19:36;100831.41;;;2.53;72.19
76762;BME280;65705;51.032;13.790;2023-03-04T00:22:03;100833.09;;;2.54;72.55
76762;BME280;65705;51.032;13.790;2023-03-04T00:24:28;100834.50;;;2.74;71.58
76762;BME280;65705;51.032;13.790;2023-03-04T00:26:54;100830.72;;;2.65;71.69
76762;BME280;65705;51.032;13.790;2023-03-04T00:29:20;100824.28;;;2.57;72.06
76762;BME280;65705;51.032;13.790;2023-03-04T00:31:46;100830.41;;;2.56;72.44
76762;BME280;65705;51.032;13.790;2023-03-04T00:34:12;100828.38;;;2.61;72.44
76762;BME280;65705;51.032;13.790;2023-03-04T00:36:39;100825.13;;;2.71;71.82
76762;BME280;65705;51.032;13.790;2023-03-04T00:39:04;100817.47;;;2.70;72.00
76762;BME280;65705;51.032;13.790;2023-03-04T00:41:30;100817.56;;;2.68;71.77
76762;BME280;65705;51.032;13.790;2023-03-04T00:43:56;100818.47;;;2.67;71.79
76762;BME280;65705;51.032;13.790;2023-03-04T00:46:21;100819.41;;;2.66;71.97
76762;BME280;65705;51.032;13.790;2023-03-04T00:48:47;100817.00;;;2.63;71.95
76762;BME280;65705;51.032;13.790;2023-03-04T00:51:13;100812.63;;;2.64;72.03
76762;BME280;65705;51.032;13.790;2023-03-04T00:53:39;100809.22;;;2.63;72.46
76762;BME280;65705;51.032;13.790;2023-03-04T00:56:05;100809.03;;;2.66;72.18
76762;BME280;65705;51.032;13.790;2023-03-04T00:58:31;100811.28;;;2.72;71.78
76762;BME280;65705;51.032;13.790;2023-03-04T01:00:57;100799.97;;;2.73;71.85
76762;BME280;65705;51.032;13.790;2023-03-04T01:03:24;100806.75;;;2.76;72.05
76762;BME280;65705;51.032;13.790;2023-03-04T01:05:51;100791.44;;;2.85;71.65
76762;BME280;65705;51.032;13.790;2023-03-04T01:08:16;100802.84;;;2.83;71.22
76762;BME280;65705;51.032;13.790;2023-03-04T01:10:42;100798.41;;;2.85;71.46
76762;BME280;65705;51.032;13.790;2023-03-04T01:13:08;100795.25;;;2.80;71.62
76762;BME280;65705;51.032;13.790;2023-03-04T01:15:33;100788.22;;;2.82;71.40
76762;BME280;65705;51.032;13.790;2023-03-04T01:17:59;100790.53;;;2.72;71.46
76762;BME280;65705;51.032;13.790;2023-03-04T01:20:25;100788.97;;;2.70;71.87
76762;BME280;65705;51.032;13.790;2023-03-04T01:22:50;100775.00;;;2.72;71.60
76762;BME280;65705;51.032;13.790;2023-03-04T01:25:16;100773.31;;;2.71;71.79
76762;BME280;65705;51.032;13.790;2023-03-04T01:27:42;100764.06;;;2.67;71.43
76762;BME280;65705;51.032;13.790;2023-03-04T01:30:08;100755.81;;;2.75;71.47
76762;BME280;65705;51.032;13.790;2023-03-04T01:32:34;100750.72;;;2.73;71.39
76762;BME280;65705;51.032;13.790;2023-03-04T01:35:00;100750.19;;;2.68;71.87
76762;BME280;65705;51.032;13.790;2023-03-04T01:37:25;100755.91;;;2.73;71.43
76762;BME280;65705;51.032;13.790;2023-03-04T01:39:51;100747.50;;;2.70;71.71
76762;BME280;65705;51.032;13.790;2023-03-04T01:42:19;100740.56;;;2.70;71.41
76762;BME280;65705;51.032;13.790;2023-03-04T01:44:46;100746.66;;;2.69;71.37
76762;BME280;65705;51.032;13.790;2023-03-04T01:47:12;100744.81;;;2.71;71.20
76762;BME280;65705;51.032;13.790;2023-03-04T01:49:38;100739.63;;;2.57;71.91
76762;BME280;65705;51.032;13.790;2023-03-04T01:52:04;100743.81;;;2.60;71.82
76762;BME280;65705;51.032;13.790;2023-03-04T01:54:30;100742.50;;;2.67;71.63
76762;BME280;65705;51.032;13.790;2023-03-04T01:56:57;100735.94;;;2.61;71.61
76762;BME280;65705;51.032;13.790;2023-03-04T01:59:26;100738.34;;;2.64;71.52
76762;BME280;65705;51.032;13.790;2023-03-04T02:01:58;100730.84;;;2.60;71.61
76762;BME280;65705;51.032;13.790;2023-03-04T02:04:29;100729.66;;;2.65;71.79
76762;BME280;65705;51.032;13.790;2023-03-04T02:06:56;100722.53;;;2.69;71.52
76762;BME280;65705;51.032;13.790;2023-03-04T02:09:22;100725.56;;;2.75;71.34
76762;BME280;65705;51.032;13.790;2023-03-04T02:11:49;100720.47;;;2.74;71.23
76762;BME280;65705;51.032;13.790;2023-03-04T02:14:18;100722.31;;;2.72;71.37
76762;BME280;65705;51.032;13.790;2023-03-04T02:16:44;100722.13;;;2.75;70.96
76762;BME280;65705;51.032;13.790;2023-03-04T02:19:22;100717.50;;;2.80;70.81
76762;BME280;65705;51.032;13.790;2023-03-04T02:21:52;100718.91;;;2.71;71.16
76762;BME280;65705;51.032;13.790;2023-03-04T02:24:44;100712.88;;;2.71;71.15
76762;BME280;65705;51.032;13.790;2023-03-04T02:27:12;100715.03;;;2.64;71.55
76762;BME280;65705;51.032;13.790;2023-03-04T02:29:38;100722.03;;;2.62;71.86
76762;BME280;65705;51.032;13.790;2023-03-04T02:32:04;100709.47;;;2.70;71.31
76762;BME280;65705;51.032;13.790;2023-03-04T02:34:33;100710.22;;;2.72;71.05
76762;BME280;65705;51.032;13.790;2023-03-04T02:37:01;100712.06;;;2.70;71.25
76762;BME280;65705;51.032;13.790;2023-03-04T02:39:34;100711.88;;;2.73;71.11
76762;BME280;65705;51.032;13.790;2023-03-04T02:42:02;100703.66;;;2.67;71.28
76762;BME280;65705;51.032;13.790;2023-03-04T02:44:32;100702.50;;;2.71;71.57
76762;BME280;65705;51.032;13.790;2023-03-04T02:47:00;100697.16;;;2.74;71.52
76762;BME280;65705;51.032;13.790;2023-03-04T02:49:28;100691.22;;;2.72;71.06
76762;BME280;65705;51.032;13.790;2023-03-04T02:54:38;100690.38;;;2.71;71.52
76762;BME280;65705;51.032;13.790;2023-03-04T02:57:06;100685.09;;;2.73;71.17
76762;BME280;65705;51.032;13.790;2023-03-04T02:59:35;100677.91;;;2.78;71.09
76762;BME280;65705;51.032;13.790;2023-03-04T03:02:00;100687.53;;;2.76;70.72
76762;BME280;65705;51.032;13.790;2023-03-04T03:04:26;100683.91;;;2.78;71.21
76762;BME280;65705;51.032;13.790;2023-03-04T03:06:53;100679.94;;;2.73;71.05
76762;BME280;65705;51.032;13.790;2023-03-04T03:09:20;100671.25;;;2.74;71.16
76762;BME280;65705;51.032;13.790;2023-03-04T03:11:46;100675.25;;;2.65;71.45
76762;BME280;65705;51.032;13.790;2023-03-04T03:14:13;100667.75;;;2.61;71.72
76762;BME280;65705;51.032;13.790;2023-03-04T03:16:39;100671.44;;;2.57;71.75
76762;BME280;65705;51.032;13.790;2023-03-04T03:19:05;100670.31;;;2.61;72.24
76762;BME280;65705;51.032;13.790;2023-03-04T03:21:32;100666.16;;;2.72;71.37
76762;BME280;65705;51.032;13.790;2023-03-04T03:23:57;100663.63;;;2.71;71.82
76762;BME280;65705;51.032;13.790;2023-03-04T03:26:23;100669.47;;;2.74;71.39
76762;BME280;65705;51.032;13.790;2023-03-04T03:28:49;100661.13;;;2.83;71.18
76762;BME280;65705;51.032;13.790;2023-03-04T03:31:15;100650.50;;;2.74;71.46
76762;BME280;65705;51.032;13.790;2023-03-04T03:33:45;100664.53;;;2.84;71.08
76762;BME280;65705;51.032;13.790;2023-03-04T03:36:11;100649.03;;;2.70;71.31
76762;BME280;65705;51.032;13.790;2023-03-04T03:38:37;100647.38;;;2.69;71.71
76762;BME280;65705;51.032;13.790;2023-03-04T03:41:03;100639.88;;;2.64;71.72
76762;BME280;65705;51.032;13.790;2023-03-04T03:43:29;100638.78;;;2.68;71.73
76762;BME280;65705;51.032;13.790;2023-03-04T03:45:54;100641.47;;;2.67;71.75
76762;BME280;65705;51.032;13.790;2023-03-04T03:48:20;100641.34;;;2.68;71.69
76762;BME280;65705;51.032;13.790;2023-03-04T03:50:46;100637.19;;;2.66;71.58
76762;BME280;65705;51.032;13.790;2023-03-04T03:53:12;100639.50;;;2.70;71.33
76762;BME280;65705;51.032;13.790;2023-03-04T03:55:37;100643.09;;;2.68;71.60
76762;BME280;65705;51.032;13.790;2023-03-04T03:58:04;100642.28;;;2.67;71.45
76762;BME280;65705;51.032;13.790;2023-03-04T04:00:30;100647.84;;;2.61;71.79
76762;BME280;65705;51.032;13.790;2023-03-04T04:02:57;100632.94;;;2.65;72.09
76762;BME280;65705;51.032;13.790;2023-03-04T04:05:24;100640.81;;;2.63;71.63
76762;BME280;65705;51.032;13.790;2023-03-04T04:07:50;100648.38;;;2.66;71.71
76762;BME280;65705;51.032;13.790;2023-03-04T04:10:16;100650.88;;;2.68;71.29
76762;BME280;65705;51.032;13.790;2023-03-04T04:12:42;100636.72;;;2.73;71.35
76762;BME280;65705;51.032;13.790;2023-03-04T04:15:10;100644.38;;;2.75;71.32
76762;BME280;65705;51.032;13.790;2023-03-04T04:17:35;100647.38;;;2.69;71.50
76762;BME280;65705;51.032;13.790;2023-03-04T04:20:01;100651.34;;;2.60;71.78
76762;BME280;65705;51.032;13.790;2023-03-04T04:22:28;100656.63;;;2.59;71.86
76762;BME280;65705;51.032;13.790;2023-03-04T04:24:53;100658.75;;;2.66;71.45
76762;BME280;65705;51.032;13.790;2023-03-04T04:27:22;100652.00;;;2.64;71.52
76762;BME280;65705;51.032;13.790;2023-03-04T04:29:48;100659.88;;;2.62;71.54
76762;BME280;65705;51.032;13.790;2023-03-04T04:32:14;100655.63;;;2.61;71.55
76762;BME280;65705;51.032;13.790;2023-03-04T04:34:39;100649.22;;;2.67;71.57
76762;BME280;65705;51.032;13.790;2023-03-04T04:37:05;100655.31;;;2.66;71.46
76762;BME280;65705;51.032;13.790;2023-03-04T04:39:31;100654.69;;;2.62;71.67
76762;BME280;65705;51.032;13.790;2023-03-04T04:41:56;100650.78;;;2.69;71.38
76762;BME280;65705;51.032;13.790;2023-03-04T04:44:22;100645.69;;;2.68;71.57
76762;BME280;65705;51.032;13.790;2023-03-04T04:46:47;100653.47;;;2.68;71.55
76762;BME280;65705;51.032;13.790;2023-03-04T04:49:13;100651.53;;;2.71;71.39
76762;BME280;65705;51.032;13.790;2023-03-04T04:51:39;100652.91;;;2.77;71.30
76762;BME280;65705;51.032;13.790;2023-03-04T04:54:05;100648.72;;;2.74;71.26
76762;BME280;65705;51.032;13.790;2023-03-04T04:56:32;100652.91;;;2.77;71.26
76762;BME280;65705;51.032;13.790;2023-03-04T04:59:00;100644.38;;;2.75;71.20
76762;BME280;65705;51.032;13.790;2023-03-04T05:01:26;100640.94;;;2.74;70.94
76762;BME280;65705;51.032;13.790;2023-03-04T05:03:52;100639.84;;;2.78;71.03
76762;BME280;65705;51.032;13.790;2023-03-04T05:06:20;100635.88;;;2.73;71.39
76762;BME280;65705;51.032;13.790;2023-03-04T05:08:47;100629.03;;;2.72;71.47
76762;BME280;65705;51.032;13.790;2023-03-04T05:11:13;100645.31;;;2.74;70.98
76762;BME280;65705;51.032;13.790;2023-03-04T05:13:39;100637.44;;;2.75;71.16
76762;BME280;65705;51.032;13.790;2023-03-04T05:16:05;100636.63;;;2.75;71.35
76762;BME280;65705;51.032;13.790;2023-03-04T05:18:32;100641.34;;;2.68;71.02
76762;BME280;65705;51.032;13.790;2023-03-04T05:21:00;100639.59;;;2.69;71.35
76762;BME280;65705;51.032;13.790;2023-03-04T05:23:28;100626.97;;;2.77;71.12
76762;BME280;65705;51.032;13.790;2023-03-04T05:25:54;100637.34;;;2.77;71.30
76762;BME280;65705;51.032;13.790;2023-03-04T05:28:20;100639.66;;;2.81;71.25
76762;BME280;65705;51.032;13.790;2023-03-04T05:30:46;100635.19;;;2.83;70.68
76762;BME280;65705;51.032;13.790;2023-03-04T05:33:14;100639.09;;;2.90;70.54
76762;BME280;65705;51.032;13.790;2023-03-04T05:35:41;100631.97;;;2.80;71.01
76762;BME280;65705;51.032;13.790;2023-03-04T05:38:09;100633.91;;;2.90;70.64
76762;BME280;65705;51.032;13.790;2023-03-04T05:40:35;100624.16;;;2.94;70.56
76762;BME280;65705;51.032;13.790;2023-03-04T05:43:01;100617.31;;;2.93;70.34
76762;BME280;65705;51.032;13.790;2023-03-04T05:45:27;100611.50;;;2.89;70.81
76762;BME280;65705;51.032;13.790;2023-03-04T05:47:53;100613.06;;;2.92;70.41
76762;BME280;65705;51.032;13.790;2023-03-04T05:50:20;100609.72;;;2.90;70.71
76762;BME280;65705;51.032;13.790;2023-03-04T05:52:46;100610.38;;;2.93;70.56
76762;BME280;65705;51.032;13.790;2023-03-04T05:55:12;100606.66;;;2.97;70.13
76762;BME280;65705;51.032;13.790;2023-03-04T05:57:38;100610.38;;;2.93;70.20
76762;BME280;65705;51.032;13.790;2023-03-04T06:00:05;100605.28;;;2.92;70.55
76762;BME280;65705;51.032;13.790;2023-03-04T06:02:38;100606.94;;;2.93;70.34
76762;BME280;65705;51.032;13.790;2023-03-04T06:05:05;100607.88;;;2.92;70.58
76762;BME280;65705;51.032;13.790;2023-03-04T06:07:31;100613.16;;;2.90;70.83
76762;BME280;65705;51.032;13.790;2023-03-04T06:09:57;100606.94;;;2.93;70.94
76762;BME280;65705;51.032;13.790;2023-03-04T06:12:23;100609.56;;;3.05;70.39
76762;BME280;65705;51.032;13.790;2023-03-04T06:14:49;100611.75;;;2.99;70.74
76762;BME280;65705;51.032;13.790;2023-03-04T06:17:15;100607.81;;;3.06;70.31
76762;BME280;65705;51.032;13.790;2023-03-04T06:19:41;100610.09;;;3.10;70.34
76762;BME280;65705;51.032;13.790;2023-03-04T06:22:10;100594.44;;;3.12;70.46
76762;BME280;65705;51.032;13.790;2023-03-04T06:24:35;100601.00;;;3.17;70.21
76762;BME280;65705;51.032;13.790;2023-03-04T06:27:01;100596.53;;;3.19;70.22
76762;BME280;65705;51.032;13.790;2023-03-04T06:29:27;100590.72;;;3.16;70.29
76762;BME280;65705;51.032;13.790;2023-03-04T06:31:53;100605.78;;;3.23;70.13
76762;BME280;65705;51.032;13.790;2023-03-04T06:34:19;100601.72;;;3.19;70.51
76762;BME280;65705;51.032;13.790;2023-03-04T06:36:45;100610.72;;;3.14;70.55
76762;BME280;65705;51.032;13.790;2023-03-04T06:39:11;100596.53;;;3.19;70.31
76762;BME280;65705;51.032;13.790;2023-03-04T06:41:37;100599.22;;;3.18;70.50
76762;BME280;65705;51.032;13.790;2023-03-04T06:44:03;100601.19;;;3.14;70.66
76762;BME280;65705;51.032;13.790;2023-03-04T06:46:29;100596.53;;;3.19;70.33
76762;BME280;65705;51.032;13.790;2023-03-04T06:48:56;100597.28;;;3.21;70.77
76762;BME280;65705;51.032;13.790;2023-03-04T06:51:21;100597.16;;;3.23;70.92
76762;BME280;65705;51.032;13.790;2023-03-04T06:53:47;100588.16;;;3.29;70.82
76762;BME280;65705;51.032;13.790;2023-03-04T06:56:13;100589.50;;;3.34;70.60
76762;BME280;65705;51.032;13.790;2023-03-04T06:58:43;100599.25;;;3.31;70.83
76762;BME280;65705;51.032;13.790;2023-03-04T07:03:39;100593.16;;;3.32;71.21
76762;BME280;65705;51.032;13.790;2023-03-04T07:06:05;100595.75;;;3.32;71.07
76762;BME280;65705;51.032;13.790;2023-03-04T07:08:30;100589.84;;;3.42;70.82
76762;BME280;65705;51.032;13.790;2023-03-04T07:10:56;100598.34;;;3.32;71.19
76762;BME280;65705;51.032;13.790;2023-03-04T07:13:22;100593.78;;;3.35;71.52
76762;BME280;65705;51.032;13.790;2023-03-04T07:15:48;100586.94;;;3.47;70.97
76762;BME280;65705;51.032;13.790;2023-03-04T07:18:13;100589.84;;;3.42;71.45
76762;BME280;65705;51.032;13.790;2023-03-04T07:20:39;100589.13;;;3.53;71.14
76762;BME280;65705;51.032;13.790;2023-03-04T07:23:05;100583.44;;;3.48;71.15
76762;BME280;65705;51.032;13.790;2023-03-04T07:25:30;100580.84;;;3.48;71.66
76762;BME280;65705;51.032;13.790;2023-03-04T07:27:56;100580.91;;;3.46;71.67
76762;BME280;65705;51.032;13.790;2023-03-04T07:30:22;100587.88;;;3.46;71.72
76762;BME280;65705;51.032;13.790;2023-03-04T07:32:48;100585.28;;;3.46;71.69
76762;BME280;65705;51.032;13.790;2023-03-04T07:35:13;100590.47;;;3.46;71.83
76762;BME280;65705;51.032;13.790;2023-03-04T07:37:39;100583.94;;;3.53;71.70
76762;BME280;65705;51.032;13.790;2023-03-04T07:40:06;100588.41;;;3.51;71.83
76762;BME280;65705;51.032;13.790;2023-03-04T07:42:35;100581.03;;;3.57;71.88
76762;BME280;65705;51.032;13.790;2023-03-04T07:45:08;100580.72;;;3.62;71.74
76762;BME280;65705;51.032;13.790;2023-03-04T07:47:34;100579.56;;;3.66;71.84
76762;BME280;65705;51.032;13.790;2023-03-04T07:49:59;100582.72;;;3.71;71.85
76762;BME280;65705;51.032;13.790;2023-03-04T07:52:25;100576.47;;;3.73;71.79
76762;BME280;65705;51.032;13.790;2023-03-04T07:54:51;100575.94;;;3.81;71.52
76762;BME280;65705;51.032;13.790;2023-03-04T07:57:17;100579.91;;;3.74;71.55
76762;BME280;65705;51.032;13.790;2023-03-04T07:59:42;100588.31;;;3.77;71.53
76762;BME280;65705;51.032;13.790;2023-03-04T08:02:09;100578.03;;;3.76;71.71
76762;BME280;65705;51.032;13.790;2023-03-04T08:04:35;100570.47;;;3.73;71.89
76762;BME280;65705;51.032;13.790;2023-03-04T08:07:01;100574.59;;;3.88;72.09
76762;BME280;65705;51.032;13.790;2023-03-04T08:09:27;100579.28;;;3.83;71.74
76762;BME280;65705;51.032;13.790;2023-03-04T08:11:52;100578.31;;;3.84;71.70
76762;BME280;65705;51.032;13.790;2023-03-04T08:14:18;100562.44;;;3.88;71.98
76762;BME280;65705;51.032;13.790;2023-03-04T08:16:44;100565.94;;;4.00;71.44
76762;BME280;65705;51.032;13.790;2023-03-04T08:19:10;100570.72;;;4.06;71.15
76762;BME280;65705;51.032;13.790;2023-03-04T08:21:36;100564.41;;;4.10;70.95
76762;BME280;65705;51.032;13.790;2023-03-04T08:24:03;100564.47;;;4.21;70.67
76762;BME280;65705;51.032;13.790;2023-03-04T08:26:45;100565.25;;;4.34;70.02
76762;BME280;65705;51.032;13.790;2023-03-04T08:29:15;100565.38;;;4.32;69.94
76762;BME280;65705;51.032;13.790;2023-03-04T08:31:41;100578.16;;;4.36;69.96
76762;BME280;65705;51.032;13.790;2023-03-04T08:34:07;100566.31;;;4.32;70.45
76762;BME280;65705;51.032;13.790;2023-03-04T08:36:35;100562.66;;;4.34;70.61
76762;BME280;65705;51.032;13.790;2023-03-04T08:39:02;100559.78;;;4.26;70.83
76762;BME280;65705;51.032;13.790;2023-03-04T08:41:28;100558.03;;;4.26;71.29
76762;BME280;65705;51.032;13.790;2023-03-04T08:43:54;100550.84;;;4.30;71.26
76762;BME280;65705;51.032;13.790;2023-03-04T08:46:21;100550.09;;;4.41;71.51
76762;BME280;65705;51.032;13.790;2023-03-04T08:48:47;100556.00;;;4.43;71.13
76762;BME280;65705;51.032;13.790;2023-03-04T08:51:14;100557.78;;;4.42;71.19
76762;BME280;65705;51.032;13.790;2023-03-04T08:53:40;100559.09;;;4.48;71.02
76762;BME280;65705;51.032;13.790;2023-03-04T08:56:08;100563.53;;;4.58;70.49
76762;BME280;65705;51.032;13.790;2023-03-04T08:58:34;100557.31;;;4.48;71.17
76762;BME280;65705;51.032;13.790;2023-03-04T09:01:00;100561.47;;;4.51;71.45
76762;BME280;65705;51.032;13.790;2023-03-04T09:03:27;100564.47;;;4.81;72.14
76762;BME280;65705;51.032;13.790;2023-03-04T09:05:53;100546.69;;;4.98;70.11
76762;BME280;65705;51.032;13.790;2023-03-04T09:08:18;100554.06;;;4.81;70.36
76762;BME280;65705;51.032;13.790;2023-03-04T09:10:45;100564.25;;;4.60;70.93
76762;BME280;65705;51.032;13.790;2023-03-04T09:13:12;100564.38;;;4.59;71.54
76762;BME280;65705;51.032;13.790;2023-03-04T09:15:48;100560.38;;;4.66;71.22
76762;BME280;65705;51.032;13.790;2023-03-04T09:18:15;100554.13;;;4.68;71.33
76762;BME280;65705;51.032;13.790;2023-03-04T09:20:41;100552.34;;;4.69;71.17
76762;BME280;65705;51.032;13.790;2023-03-04T09:23:06;100552.97;;;4.72;71.26
76762;BME280;65705;51.032;13.790;2023-03-04T09:25:35;100552.84;;;4.74;71.07
76762;BME280;65705;51.032;13.790;2023-03-04T09:28:01;100550.97;;;4.76;71.27
76762;BME280;65705;51.032;13.790;2023-03-04T09:30:27;100558.88;;;4.74;71.07
76762;BME280;65705;51.032;13.790;2023-03-04T09:32:53;100563.06;;;4.88;70.93
76762;BME280;65705;51.032;13.790;2023-03-04T09:35:18;100559.13;;;4.71;70.93
76762;BME280;65705;51.032;13.790;2023-03-04T09:37:44;100554.59;;;4.73;71.48
76762;BME280;65705;51.032;13.790;2023-03-04T09:40:29;100552.72;;;4.75;71.43
76762;BME280;65705;51.032;13.790;2023-03-04T09:42:59;100554.78;;;4.83;71.33
76762;BME280;65705;51.032;13.790;2023-03-04T09:45:36;100557.72;;;4.78;71.04
76762;BME280;65705;51.032;13.790;2023-03-04T09:48:04;100550.91;;;4.88;71.43
76762;BME280;65705;51.032;13.790;2023-03-04T09:50:33;100547.63;;;4.97;70.99
76762;BME280;65705;51.032;13.790;2023-03-04T09:55:48;100544.78;;;4.89;71.37
76762;BME280;65705;51.032;13.790;2023-03-04T09:58:25;100547.16;;;4.92;71.15
76762;BME280;65705;51.032;13.790;2023-03-04T10:01:09;100538.19;;;4.96;71.28
76762;BME280;65705;51.032;13.790;2023-03-04T10:03:44;100535.00;;;5.04;71.10
76762;BME280;65705;51.032;13.790;2023-03-04T10:06:16;100541.88;;;5.05;71.24
76762;BME280;65705;51.032;13.790;2023-03-04T10:16:55;100527.72;;;5.20;70.92
76762;BME280;65705;51.032;13.790;2023-03-04T10:19:47;100523.09;;;5.23;70.46
76762;BME280;65705;51.032;13.790;2023-03-04T10:22:29;100526.91;;;5.19;70.88
76762;BME280;65705;51.032;13.790;2023-03-04T10:24:57;100518.25;;;5.19;70.94
76762;BME280;65705;51.032;13.790;2023-03-04T10:27:24;100519.59;;;5.35;70.44
76762;BME280;65705;51.032;13.790;2023-03-04T10:29:50;100511.09;;;5.33;70.70
76762;BME280;65705;51.032;13.790;2023-03-04T10:32:17;100521.81;;;5.29;70.58
76762;BME280;65705;51.032;13.790;2023-03-04T10:34:43;100503.72;;;5.27;71.00
76762;BME280;65705;51.032;13.790;2023-03-04T10:37:10;100505.41;;;5.39;70.48
76762;BME280;65705;51.032;13.790;2023-03-04T10:39:41;100509.22;;;5.47;70.20
76762;BME280;65705;51.032;13.790;2023-03-04T10:44:53;100545.91;;;5.66;73.37
76762;BME280;65705;51.032;13.790;2023-03-04T10:47:23;100515.00;;;5.39;71.43
76762;BME280;65705;51.032;13.790;2023-03-04T10:49:57;100507.69;;;5.55;71.82
76762;BME280;65705;51.032;13.790;2023-03-04T10:52:39;100501.66;;;5.66;71.51
76762;BME280;65705;51.032;13.790;2023-03-04T10:55:17;100519.88;;;5.66;70.70
76762;BME280;65705;51.032;13.790;2023-03-04T10:57:48;100512.75;;;5.46;71.12
76762;BME280;65705;51.032;13.790;2023-03-04T11:02:46;100512.28;;;5.41;70.84
76762;BME280;65705;51.032;13.790;2023-03-04T11:05:24;100504.59;;;5.39;70.96
76762;BME280;65705;51.032;13.790;2023-03-04T11:07:55;100498.09;;;5.45;70.98
76762;BME280;65705;51.032;13.790;2023-03-04T11:10:43;100509.09;;;5.48;71.16
76762;BME280;65705;51.032;13.790;2023-03-04T11:13:16;100497.13;;;5.34;71.26
76762;BME280;65705;51.032;13.790;2023-03-04T11:15:54;100499.97;;;5.43;71.50
76762;BME280;65705;51.032;13.790;2023-03-04T11:18:24;100493.69;;;5.45;71.54
76762;BME280;65705;51.032;13.790;2023-03-04T11:20:55;100493.31;;;5.27;71.93
76762;BME280;65705;51.032;13.790;2023-03-04T11:23:38;100491.47;;;5.41;71.62
76762;BME280;65705;51.032;13.790;2023-03-04T11:26:15;100490.97;;;5.24;72.05
76762;BME280;65705;51.032;13.790;2023-03-04T11:28:58;100485.56;;;5.50;71.77
76762;BME280;65705;51.032;13.790;2023-03-04T11:31:31;100488.38;;;5.58;71.36
76762;BME280;65705;51.032;13.790;2023-03-04T11:39:52;100483.41;;;5.99;70.25
76762;BME280;65705;51.032;13.790;2023-03-04T11:45:10;100487.72;;;5.89;69.71
76762;BME280;65705;51.032;13.790;2023-03-04T11:47:45;100472.53;;;5.83;70.61
76762;BME280;65705;51.032;13.790;2023-03-04T12:07:21;100449.81;;;5.52;71.54
76762;BME280;65705;51.032;13.790;2023-03-04T12:12:34;100451.59;;;5.73;70.80
76762;BME280;65705;51.032;13.790;2023-03-04T12:15:31;100456.22;;;5.70;70.55
76762;BME280;65705;51.032;13.790;2023-03-04T12:18:24;100457.63;;;5.85;70.35
76762;BME280;65705;51.032;13.790;2023-03-04T12:24:01;100446.00;;;6.11;68.90
76762;BME280;65705;51.032;13.790;2023-03-04T12:26:40;100438.78;;;6.03;69.29
76762;BME280;65705;51.032;13.790;2023-03-04T12:29:38;100438.06;;;6.12;69.01
76762;BME280;65705;51.032;13.790;2023-03-04T12:34:58;100427.59;;;6.23;68.09
76762;BME280;65705;51.032;13.790;2023-03-04T12:40:26;100416.31;;;6.34;68.17
76762;BME280;65705;51.032;13.790;2023-03-04T12:45:45;100409.59;;;6.20;68.55
76762;BME280;65705;51.032;13.790;2023-03-04T12:48:24;100412.31;;;6.19;68.33
76762;BME280;65705;51.032;13.790;2023-03-04T12:53:35;100430.91;;;6.25;68.14
76762;BME280;65705;51.032;13.790;2023-03-04T12:56:04;100408.66;;;6.21;68.14
76762;BME280;65705;51.032;13.790;2023-03-04T12:58:32;100405.81;;;6.13;68.19
76762;BME280;65705;51.032;13.790;2023-03-04T13:01:25;100414.47;;;6.14;68.38
76762;BME280;65705;51.032;13.790;2023-03-04T13:09:32;100402.06;;;6.06;68.46
76762;BME280;65705;51.032;13.790;2023-03-04T13:12:14;100405.97;;;6.01;68.56
76762;BME280;65705;51.032;13.790;2023-03-04T13:17:42;100399.09;;;6.11;68.05
76762;BME280;65705;51.032;13.790;2023-03-04T13:22:56;100398.97;;;6.12;68.22
76762;BME280;65705;51.032;13.790;2023-03-04T13:25:43;100399.69;;;6.14;68.00
76762;BME280;65705;51.032;13.790;2023-03-04T13:43:54;100372.66;;;6.47;65.85
76762;BME280;65705;51.032;13.790;2023-03-04T13:51:23;100366.84;;;6.64;64.36
76762;BME280;65705;51.032;13.790;2023-03-04T13:56:41;100345.88;;;6.66;64.24
76762;BME280;65705;51.032;13.790;2023-03-04T14:04:12;100352.28;;;6.82;63.68
76762;BME280;65705;51.032;13.790;2023-03-04T14:06:42;100351.28;;;6.74;63.98
76762;BME280;65705;51.032;13.790;2023-03-04T14:09:17;100357.56;;;6.71;63.93
76762;BME280;65705;51.032;13.790;2023-03-04T14:11:45;100352.41;;;6.60;64.52
76762;BME280;65705;51.032;13.790;2023-03-04T14:14:23;100354.53;;;6.66;64.69
76762;BME280;65705;51.032;13.790;2023-03-04T14:16:52;100358.34;;;6.62;64.51
76762;BME280;65705;51.032;13.790;2023-03-04T14:21:51;100351.66;;;6.69;64.61
76762;BME280;65705;51.032;13.790;2023-03-04T14:24:19;100345.56;;;6.59;65.14
76762;BME280;65705;51.032;13.790;2023-03-04T14:26:46;100348.41;;;6.56;65.17
76762;BME280;65705;51.032;13.790;2023-03-04T14:29:21;100341.03;;;6.61;65.01
76762;BME280;65705;51.032;13.790;2023-03-04T14:31:47;100348.09;;;6.70;64.92
76762;BME280;65705;51.032;13.790;2023-03-04T14:34:20;100350.88;;;6.78;64.83
76762;BME280;65705;51.032;13.790;2023-03-04T14:36:48;100352.66;;;6.78;64.43
76762;BME280;65705;51.032;13.790;2023-03-04T14:39:15;100340.28;;;6.70;64.55
76762;BME280;65705;51.032;13.790;2023-03-04T14:41:44;100339.59;;;6.78;64.76